»·PEaware :: RNGR803 KNGP-KNGP

RNGR803 :: KNGP-KNGP

FLIGHT INFORMATION

Flight Status: Arrived
Operator: Unknown
More flights by this operator :: More flights under this callsign
Pilot: USN Avenger (31125)
Aircraft: BEECH AIRCRAFT T-6A TEXAN
(TEX2)
More flights by this aircraft type
Origin: KNGP Corpus Christi NAS/Truax
United States
Destination: KNGP Corpus Christi NAS/Truax
United States
More flights between these airports :: More routes between these airports
Route: ZOMBIEONE
File this flight plan on PilotEdge
Remarks: RWAY 13L
Altitude:
(Current/Filed)
4,500ft
Speed:
(Current/Filed)
240kts
Departed: 15-Nov-23 10:32 AM
Arrived: 15-Nov-23 11:24 AM
Distance/Time
Traveled:
1nm/0:52
Distance/Time
To Go:
Arrived

Flight Plot

Page will automatically refresh every two minutes.

Flight plan parsing failed; only flown route is shown


Map Options




Map Legend


Flown Route
Filed Route
Departure Airport
Arrival Airport
Navaid (VOR, NDB)
Fix

Horizontal Profiles

Position Reports

Time Latitude Longitude Heading Altitude Ground
Speed
15-Nov-23 10:18 27.698542 -97.284284 158 22ft 0kts
15-Nov-23 10:19 27.698540 -97.284284 158 22ft 0kts
15-Nov-23 10:20 27.698539 -97.284283 158 22ft 0kts
15-Nov-23 10:21 27.698537 -97.284282 158 22ft 0kts
15-Nov-23 10:22 27.698536 -97.284281 158 22ft 0kts
15-Nov-23 10:23 27.698534 -97.284281 159 22ft 0kts
15-Nov-23 10:24 27.698532 -97.284280 159 22ft 0kts
15-Nov-23 10:25 27.698531 -97.284279 159 22ft 0kts
15-Nov-23 10:26 27.698405 -97.284226 164 22ft 4kts
15-Nov-23 10:27 27.699364 -97.286010 325 22ft 13kts
15-Nov-23 10:28 27.697384 -97.288913 228 22ft 17kts
15-Nov-23 10:29 27.696126 -97.290484 226 22ft 0kts
15-Nov-23 10:30 27.694801 -97.291273 134 22ft 0kts
15-Nov-23 10:31 27.672780 -97.265763 131 548ft 195kts
15-Nov-23 10:32 27.672843 -97.218281 13 651ft 198kts
15-Nov-23 10:33 27.735674 -97.229514 344 638ft 249kts
15-Nov-23 10:34 27.799497 -97.255216 341 523ft 238kts
15-Nov-23 10:35 27.864941 -97.265577 356 530ft 238kts
15-Nov-23 10:36 27.926587 -97.284237 331 1545ft 229kts
15-Nov-23 10:37 27.975881 -97.319131 331 4275ft 190kts
15-Nov-23 10:38 28.029506 -97.350098 332 4652ft 251kts
15-Nov-23 10:39 28.092277 -97.382920 337 4574ft 246kts
15-Nov-23 10:40 28.155725 -97.413624 337 4516ft 247kts
15-Nov-23 10:41 28.219314 -97.443556 335 4514ft 247kts
15-Nov-23 10:42 28.280709 -97.477316 333 4603ft 246kts
15-Nov-23 10:43 28.342824 -97.509755 335 4588ft 249kts
15-Nov-23 10:44 28.406277 -97.540290 336 4617ft 246kts
15-Nov-23 10:45 28.470022 -97.570985 328 4429ft 251kts
15-Nov-23 10:46 28.521787 -97.612615 324 1829ft 222kts
15-Nov-23 10:47 28.568176 -97.655294 318 1344ft 230kts
15-Nov-23 10:48 28.620224 -97.701501 350 1420ft 232kts
15-Nov-23 10:49 28.629886 -97.649972 102 1284ft 207kts
15-Nov-23 10:50 28.615615 -97.588814 71 1317ft 180kts
15-Nov-23 10:51 28.635286 -97.606936 286 1151ft 127kts
15-Nov-23 10:52 28.625569 -97.627535 137 417ft 112kts
15-Nov-23 10:53 28.614148 -97.595836 108 652ft 125kts
15-Nov-23 10:54 28.607499 -97.557267 163 1365ft 175kts
15-Nov-23 10:55 28.553391 -97.537828 167 2565ft 234kts
15-Nov-23 10:56 28.487297 -97.526699 173 2624ft 239kts
15-Nov-23 10:57 28.420331 -97.521293 163 2611ft 236kts
15-Nov-23 10:58 28.368554 -97.473953 136 2493ft 240kts
15-Nov-23 10:59 28.321586 -97.419371 134 2590ft 243kts
15-Nov-23 11:00 28.271895 -97.365790 137 2540ft 246kts
15-Nov-23 11:01 28.216532 -97.321537 154 2580ft 246kts
15-Nov-23 11:02 28.155611 -97.285193 146 2446ft 249kts
15-Nov-23 11:03 28.096339 -97.245654 172 2290ft 248kts
15-Nov-23 11:04 28.031897 -97.263379 202 2670ft 238kts
15-Nov-23 11:05 27.966986 -97.279158 162 2258ft 237kts
15-Nov-23 11:06 27.932414 -97.233572 130 711ft 198kts
15-Nov-23 11:07 27.897333 -97.188426 59 966ft 146kts
15-Nov-23 11:08 27.923218 -97.206271 312 905ft 128kts
15-Nov-23 11:09 27.924364 -97.224492 113 262ft 118kts
15-Nov-23 11:10 27.901664 -97.200892 141 712ft 118kts
15-Nov-23 11:11 27.916380 -97.200146 313 843ft 111kts
15-Nov-23 11:12 27.963450 -97.203589 16 1110ft 241kts
15-Nov-23 11:13 28.020898 -97.171154 85 1042ft 235kts
15-Nov-23 11:14 27.970674 -97.137757 161 1073ft 231kts
15-Nov-23 11:15 27.906316 -97.130569 198 1068ft 240kts
15-Nov-23 11:16 27.846657 -97.164196 193 1066ft 240kts
15-Nov-23 11:17 27.779911 -97.170150 191 953ft 244kts
15-Nov-23 11:18 27.742279 -97.216230 254 1041ft 208kts
15-Nov-23 11:19 27.728534 -97.279349 256 973ft 206kts
15-Nov-23 11:20 27.686247 -97.279507 127 1021ft 194kts
15-Nov-23 11:21 27.703218 -97.274723 306 761ft 123kts
15-Nov-23 11:22 27.698012 -97.294205 139 106ft 108kts
15-Nov-23 11:23 27.685954 -97.280852 78 22ft 10kts
15-Nov-23 11:32 27.698550 -97.284288 158 22ft 0kts
15-Nov-23 11:33 27.698448 -97.284245 160 22ft 0kts
15-Nov-23 11:34 27.689268 -97.282258 0 22ft 0kts
15-Nov-23 11:35 27.689270 -97.282258 0 22ft 0kts
15-Nov-23 11:36 27.689272 -97.282258 0 22ft 0kts
15-Nov-23 11:37 27.689274 -97.282258 0 22ft 0kts

Navigation Log

Ident Type
Flight plan parsing failed, navigation log unavailable